createdAt,value
2019-06-01T00:00:26.503Z,8.73
2019-06-01T00:02:57.528Z,9.00
2019-06-01T00:05:27.902Z,9.57
2019-06-01T00:07:58.877Z,9.03
2019-06-01T00:10:29.173Z,9.60
2019-06-01T00:12:59.463Z,10.33
2019-06-01T00:15:29.904Z,10.03
2019-06-01T00:18:00.125Z,10.00
2019-06-01T00:20:30.279Z,8.93
2019-06-01T00:23:00.557Z,9.13
2019-06-01T00:25:31.216Z,8.40
2019-06-01T00:28:01.514Z,9.13
2019-06-01T00:30:31.853Z,10.20
2019-06-01T00:33:02.154Z,8.37
2019-06-01T00:35:32.718Z,10.27
2019-06-01T00:38:03.053Z,9.23
2019-06-01T00:40:33.530Z,8.63
2019-06-01T00:43:03.874Z,8.77
2019-06-01T00:45:34.242Z,9.63
2019-06-01T00:48:04.757Z,7.97
2019-06-01T00:50:35.050Z,8.57
2019-06-01T00:53:06.117Z,8.17
2019-06-01T00:55:36.422Z,9.13
2019-06-01T00:58:06.799Z,9.03
2019-06-01T01:00:43.849Z,8.50
2019-06-01T01:03:09.096Z,10.27
2019-06-01T01:05:39.394Z,11.83
2019-06-01T01:08:09.713Z,9.27
2019-06-01T01:10:40.013Z,9.17
2019-06-01T01:13:13.872Z,9.97
2019-06-01T01:15:45.210Z,9.83
2019-06-01T01:18:15.605Z,8.73
2019-06-01T01:20:46.031Z,8.27
2019-06-01T01:23:16.348Z,10.23
2019-06-01T01:25:46.646Z,9.33
2019-06-01T01:28:16.959Z,13.03
2019-06-01T01:31:03.006Z,8.80
2019-06-01T01:33:19.331Z,10.70
2019-06-01T01:35:52.386Z,10.23
2019-06-01T01:38:22.391Z,9.30
2019-06-01T01:40:52.704Z,8.90
2019-06-01T01:43:23.087Z,9.30
2019-06-01T01:45:54.731Z,9.20
2019-06-01T01:48:25.080Z,9.33
2019-06-01T01:50:56.451Z,14.63
2019-06-01T01:53:26.764Z,9.90
2019-06-01T01:55:57.259Z,10.53
2019-06-01T01:58:27.491Z,11.83
2019-06-01T02:00:58.559Z,12.33
2019-06-01T02:03:29.828Z,8.97
2019-06-01T02:06:00.133Z,14.20
2019-06-01T02:08:30.456Z,10.90
2019-06-01T02:11:01.811Z,12.07
2019-06-01T02:13:32.219Z,10.20
2019-06-01T02:16:02.723Z,10.67
2019-06-01T02:18:33.011Z,8.63
2019-06-01T02:21:03.505Z,11.67
2019-06-01T02:23:33.831Z,13.03
2019-06-01T02:26:04.134Z,13.47
2019-06-01T02:28:34.421Z,9.53
2019-06-01T02:31:04.714Z,12.40
2019-06-01T02:33:35.012Z,11.57
2019-06-01T02:36:05.763Z,9.80
2019-06-01T02:38:36.040Z,12.47
2019-06-01T02:41:06.445Z,8.90
2019-06-01T02:43:36.732Z,12.03
2019-06-01T02:46:07.624Z,10.80
2019-06-01T02:48:37.965Z,8.90
2019-06-01T02:51:08.289Z,10.60
2019-06-01T02:53:38.618Z,9.73
2019-06-01T02:56:08.979Z,11.83
2019-06-01T02:58:39.850Z,9.47
2019-06-01T03:01:37.447Z,10.63
2019-06-01T03:04:10.458Z,10.13
2019-06-01T03:06:44.454Z,11.50
2019-06-01T03:09:15.459Z,10.70
2019-06-01T03:11:48.439Z,10.77
2019-06-01T03:14:20.707Z,11.43
2019-06-01T03:16:53.581Z,13.27
2019-06-01T03:19:27.704Z,11.73
2019-06-01T03:22:03.713Z,12.63
2019-06-01T03:24:38.042Z,11.97
2019-06-01T03:27:12.456Z,10.83
2019-06-01T03:29:49.205Z,10.60
2019-06-01T03:32:35.189Z,10.37
2019-06-01T03:34:53.634Z,12.03
2019-06-01T03:37:24.055Z,12.20
2019-06-01T03:39:54.530Z,11.17
2019-06-01T03:42:24.829Z,10.23
2019-06-01T03:44:55.279Z,13.53
2019-06-01T03:47:25.654Z,14.20
2019-06-01T03:49:56.004Z,14.43
2019-06-01T03:52:26.342Z,11.27
2019-06-01T03:54:56.658Z,10.93
2019-06-01T03:57:26.956Z,10.20
2019-06-01T03:59:57.309Z,12.87
2019-06-01T04:02:33.074Z,13.70
2019-06-01T04:04:59.691Z,11.03
2019-06-01T04:07:30.018Z,11.93
2019-06-01T04:10:01.623Z,11.77
2019-06-01T04:12:32.294Z,13.30
2019-06-01T04:15:08.387Z,11.30
2019-06-01T04:17:34.947Z,12.57
2019-06-01T04:20:06.306Z,10.97
2019-06-01T04:22:37.009Z,10.50
2019-06-01T04:25:08.306Z,15.30
2019-06-01T04:27:39.906Z,14.07
2019-06-01T04:30:11.511Z,13.93
2019-06-01T04:32:49.862Z,14.90
2019-06-01T04:35:15.412Z,11.13
2019-06-01T04:37:46.233Z,11.07
2019-06-01T04:40:17.020Z,12.47
2019-06-01T04:42:47.517Z,10.10
2019-06-01T04:45:17.749Z,14.13
2019-06-01T04:47:48.043Z,11.97
2019-06-01T04:50:18.298Z,11.40
2019-06-01T04:52:48.613Z,9.80
2019-06-01T04:55:19.397Z,9.77
2019-06-01T04:57:49.693Z,12.20
2019-06-01T05:00:27.420Z,11.70
2019-06-01T05:03:04.397Z,10.67
2019-06-01T05:05:24.260Z,12.50
2019-06-01T05:07:54.556Z,12.93
2019-06-01T05:10:24.924Z,11.63
2019-06-01T05:12:55.220Z,12.63
2019-06-01T05:15:25.594Z,12.93
2019-06-01T05:17:55.877Z,13.60
2019-06-01T05:20:26.242Z,12.33
2019-06-01T05:22:56.597Z,12.53
2019-06-01T05:25:26.997Z,11.93
2019-06-01T05:27:57.317Z,11.40
2019-06-01T05:30:27.631Z,12.03
2019-06-01T05:32:57.917Z,12.53
2019-06-01T05:35:28.294Z,10.23
2019-06-01T05:37:58.617Z,11.40
2019-06-01T05:40:29.217Z,15.07
2019-06-01T05:42:59.542Z,11.77
2019-06-01T05:45:30.046Z,13.80
2019-06-01T05:48:00.355Z,12.50
2019-06-01T05:50:30.629Z,9.40
2019-06-01T05:53:01.623Z,13.67
2019-06-01T05:55:31.911Z,14.00
2019-06-01T05:58:02.003Z,13.50
2019-06-01T06:00:41.942Z,11.70
2019-06-01T06:03:15.064Z,9.60
2019-06-01T06:05:45.081Z,8.67
2019-06-01T06:08:15.984Z,9.70
2019-06-01T06:10:46.560Z,11.00
2019-06-01T06:13:17.412Z,11.30
2019-06-01T06:15:47.544Z,8.17
2019-06-01T06:18:17.868Z,9.77
2019-06-01T06:20:47.916Z,10.00
2019-06-01T06:23:18.506Z,9.93
2019-06-01T06:25:48.513Z,12.50
2019-06-01T06:28:18.819Z,13.40
2019-06-01T06:30:48.820Z,9.53
2019-06-01T06:33:19.379Z,10.90
2019-06-01T06:35:49.528Z,8.57
2019-06-01T06:38:19.875Z,7.17
2019-06-01T06:40:49.898Z,9.40
2019-06-01T06:43:29.683Z,8.45
2019-06-01T06:45:51.892Z,8.83
2019-06-01T06:48:23.219Z,10.18
2019-06-01T06:50:53.490Z,9.73
2019-06-01T06:53:32.643Z,8.20
2019-06-01T06:55:55.436Z,6.50
2019-06-01T06:58:26.516Z,6.55
2019-06-01T07:00:56.689Z,9.23
2019-06-01T07:03:27.228Z,8.45
2019-06-01T07:05:57.353Z,11.60
2019-06-01T07:08:28.059Z,7.15
2019-06-01T07:10:58.251Z,9.00
2019-06-01T07:13:28.401Z,10.13
2019-06-01T07:15:58.546Z,8.83
2019-06-01T07:18:28.709Z,8.03
2019-06-01T07:20:58.829Z,5.50
2019-06-01T07:23:28.947Z,7.65
2019-06-01T07:25:59.143Z,5.47
2019-06-01T07:28:29.301Z,7.25
2019-06-01T07:30:59.544Z,5.37
2019-06-01T07:33:29.645Z,6.17
2019-06-01T07:35:59.749Z,6.55
2019-06-01T07:38:29.921Z,6.62
2019-06-01T07:41:00.087Z,6.67
2019-06-01T07:43:30.200Z,6.10
2019-06-01T07:46:00.350Z,5.35
2019-06-01T07:48:30.450Z,8.65
2019-06-01T07:51:00.482Z,6.70
2019-06-01T07:53:31.540Z,5.83
2019-06-01T07:56:01.557Z,5.70
2019-06-01T07:58:32.937Z,4.12
2019-06-01T08:01:03.357Z,4.35
2019-06-01T08:03:35.078Z,7.40
2019-06-01T08:06:05.459Z,9.05
2019-06-01T08:08:35.541Z,6.42
2019-06-01T08:11:05.787Z,5.45
2019-06-01T08:13:36.056Z,5.37
2019-06-01T08:16:06.331Z,6.55
2019-06-01T08:18:36.482Z,5.75
2019-06-01T08:21:06.620Z,6.00
2019-06-01T08:23:36.736Z,4.37
2019-06-01T08:26:06.942Z,4.20
2019-06-01T08:28:37.081Z,6.10
2019-06-01T08:31:07.354Z,5.15
2019-06-01T08:33:37.465Z,5.95
2019-06-01T08:36:07.751Z,5.35
2019-06-01T08:38:37.935Z,4.12
2019-06-01T08:41:08.227Z,5.50
2019-06-01T08:43:38.443Z,3.77
2019-06-01T08:46:08.603Z,4.72
2019-06-01T08:48:38.609Z,7.45
2019-06-01T08:51:08.770Z,6.22
2019-06-01T08:53:38.923Z,4.10
2019-06-01T08:56:09.071Z,4.20
2019-06-01T08:58:39.181Z,4.15
2019-06-01T09:01:09.219Z,4.62
2019-06-01T09:03:46.285Z,5.85
2019-06-01T09:06:11.192Z,6.05
2019-06-01T09:08:41.371Z,5.92
2019-06-01T09:11:11.626Z,5.85
2019-06-01T09:13:41.879Z,6.42
2019-06-01T09:16:12.157Z,5.67
2019-06-01T09:18:42.352Z,5.08
2019-06-01T09:21:12.508Z,4.40
2019-06-01T09:23:42.535Z,4.95
2019-06-01T09:26:12.737Z,5.20
2019-06-01T09:28:42.915Z,5.10
2019-06-01T09:31:13.102Z,5.15
2019-06-01T09:33:43.375Z,5.72
2019-06-01T09:37:47.620Z,6.70
2019-06-01T09:40:18.092Z,6.40
2019-06-01T09:42:48.176Z,6.58
2019-06-01T09:45:18.709Z,8.80
2019-06-01T09:47:48.935Z,6.67
2019-06-01T09:50:19.164Z,7.28
2019-06-01T09:52:49.235Z,5.85
2019-06-01T09:55:19.540Z,6.83
2019-06-01T09:57:50.152Z,7.30
2019-06-01T10:00:21.019Z,4.05
2019-06-01T10:02:51.220Z,4.25
2019-06-01T10:05:21.279Z,4.40
2019-06-01T10:07:51.414Z,4.03
2019-06-01T10:10:21.514Z,5.00
2019-06-01T10:12:51.588Z,3.83
2019-06-01T10:15:21.744Z,5.55
2019-06-01T10:17:51.974Z,4.85
2019-06-01T10:20:22.151Z,4.62
2019-06-01T10:22:52.244Z,5.40
2019-06-01T10:25:22.324Z,4.05
2019-06-01T10:27:52.352Z,5.55
2019-06-01T10:30:22.501Z,5.55
2019-06-01T10:32:52.553Z,4.20
2019-06-01T10:35:22.687Z,5.05
2019-06-01T10:37:52.856Z,5.25
2019-06-01T10:40:23.031Z,3.72
2019-06-01T10:42:53.211Z,4.83
2019-06-01T10:45:23.359Z,3.85
2019-06-01T10:47:53.414Z,5.40
2019-06-01T10:50:23.426Z,4.50
2019-06-01T10:52:53.511Z,6.28
2019-06-01T10:55:23.695Z,6.30
2019-06-01T10:57:53.776Z,4.80
2019-06-01T11:00:37.786Z,4.83
2019-06-01T11:02:55.889Z,5.05
2019-06-01T11:05:26.079Z,5.03
2019-06-01T11:07:56.450Z,4.67
2019-06-01T11:10:26.526Z,4.10
2019-06-01T11:12:56.541Z,4.10
2019-06-01T11:15:26.613Z,6.05
2019-06-01T11:17:56.612Z,4.70
2019-06-01T11:20:26.877Z,4.83
2019-06-01T11:22:57.000Z,5.87
2019-06-01T11:25:27.166Z,5.25
2019-06-01T11:27:57.350Z,5.75
2019-06-01T11:30:27.496Z,4.50
2019-06-01T11:32:57.662Z,4.20
2019-06-01T11:35:27.812Z,6.55
2019-06-01T11:37:57.745Z,5.08
2019-06-01T11:40:27.758Z,5.62
2019-06-01T11:42:57.915Z,5.97
2019-06-01T11:45:28.095Z,5.22
2019-06-01T11:47:58.211Z,5.03
2019-06-01T11:50:28.294Z,7.00
2019-06-01T11:52:58.246Z,10.88
2019-06-01T11:55:28.336Z,5.62
2019-06-01T11:57:58.335Z,6.90
2019-06-01T12:00:28.593Z,6.33
2019-06-01T12:02:58.691Z,7.12
2019-06-01T12:05:29.649Z,5.50
2019-06-01T12:07:59.655Z,4.42
2019-06-01T12:10:29.607Z,5.42
2019-06-01T12:12:59.644Z,3.27
2019-06-01T12:15:29.807Z,6.00
2019-06-01T12:17:59.809Z,6.42
2019-06-01T12:20:29.974Z,4.45
2019-06-01T12:23:00.043Z,4.53
2019-06-01T12:25:30.208Z,3.10
2019-06-01T12:28:00.291Z,3.90
2019-06-01T12:30:30.484Z,6.10
2019-06-01T12:33:01.282Z,4.67
2019-06-01T12:35:31.385Z,4.80
2019-06-01T12:38:06.336Z,5.03
2019-06-01T12:40:33.290Z,3.77
2019-06-01T12:43:03.354Z,5.33
2019-06-01T12:45:33.515Z,4.43
2019-06-01T12:48:03.709Z,4.33
2019-06-01T12:50:33.831Z,4.03
2019-06-01T12:53:04.169Z,3.47
2019-06-01T12:55:34.383Z,7.60
2019-06-01T12:58:04.549Z,5.03
2019-06-01T13:00:34.740Z,3.70
2019-06-01T13:03:07.813Z,3.30
2019-06-01T13:05:37.168Z,3.97
2019-06-01T13:08:07.324Z,3.15
2019-06-01T13:10:37.547Z,5.15
2019-06-01T13:13:07.617Z,3.10
2019-06-01T13:15:37.795Z,4.10
2019-06-01T13:18:07.909Z,4.72
2019-06-01T13:20:38.080Z,4.37
2019-06-01T13:23:08.264Z,4.83
2019-06-01T13:25:38.386Z,3.97
2019-06-01T13:28:08.521Z,4.30
2019-06-01T13:30:38.587Z,2.93
2019-06-01T13:33:08.655Z,3.00
2019-06-01T13:35:38.851Z,3.37
2019-06-01T13:38:12.144Z,4.22
2019-06-01T13:40:40.847Z,3.97
2019-06-01T13:43:10.939Z,4.50
2019-06-01T13:45:41.076Z,4.43
2019-06-01T13:48:11.207Z,2.95
2019-06-01T13:50:41.407Z,2.90
2019-06-01T13:53:11.482Z,2.98
2019-06-01T13:55:41.579Z,3.77
2019-06-01T13:58:11.763Z,2.55
2019-06-01T14:00:41.996Z,2.67
2019-06-01T14:03:12.078Z,2.95
2019-06-01T14:05:42.237Z,4.57
2019-06-01T14:08:27.863Z,1.90
2019-06-01T14:10:45.155Z,2.90
2019-06-01T14:13:15.336Z,4.03
2019-06-01T14:15:45.822Z,5.15
2019-06-01T14:18:15.965Z,2.55
2019-06-01T14:20:46.058Z,3.90
2019-06-01T14:23:16.172Z,2.05
2019-06-01T14:25:46.315Z,3.17
2019-06-01T14:28:16.519Z,2.98
2019-06-01T14:30:46.637Z,2.20
2019-06-01T14:33:16.682Z,3.87
2019-06-01T14:35:46.844Z,2.08
2019-06-01T14:38:16.961Z,1.75
2019-06-01T14:40:47.143Z,2.42
2019-06-01T14:43:17.098Z,1.90
2019-06-01T14:45:47.424Z,2.70
2019-06-01T14:48:17.536Z,2.25
2019-06-01T14:50:47.710Z,2.22
2019-06-01T14:53:17.739Z,1.90
2019-06-01T14:55:47.899Z,4.33
2019-06-01T14:58:18.044Z,1.67
2019-06-01T15:00:50.158Z,3.47
2019-06-01T15:03:20.495Z,1.75
2019-06-01T15:05:50.516Z,1.65
2019-06-01T15:08:20.723Z,2.75
2019-06-01T15:10:51.030Z,1.70
2019-06-01T15:13:22.040Z,1.72
2019-06-01T15:15:53.377Z,1.60
2019-06-01T15:18:23.517Z,2.27
2019-06-01T15:20:53.848Z,1.87
2019-06-01T15:23:23.917Z,4.80
2019-06-01T15:25:54.615Z,2.00
2019-06-01T15:28:24.698Z,4.35
2019-06-01T15:30:54.925Z,4.40
2019-06-01T15:33:25.022Z,2.08
2019-06-01T15:35:55.966Z,2.47
2019-06-01T15:38:26.186Z,2.85
2019-06-01T15:40:56.356Z,2.33
2019-06-01T15:43:26.443Z,2.47
2019-06-01T15:45:57.568Z,1.90
2019-06-01T15:48:27.682Z,2.08
2019-06-01T15:51:01.303Z,2.35
2019-06-01T15:53:29.735Z,2.00
2019-06-01T15:56:01.024Z,2.22
2019-06-01T15:58:31.136Z,2.10
2019-06-01T16:01:01.323Z,5.92
2019-06-01T16:03:34.025Z,3.98
2019-06-01T16:06:03.538Z,2.98
2019-06-01T16:08:33.791Z,2.47
2019-06-01T16:11:06.260Z,1.85
2019-06-01T16:13:35.807Z,2.35
2019-06-01T16:16:06.068Z,1.80
2019-06-01T16:18:36.237Z,2.87
2019-06-01T16:21:06.555Z,3.15
2019-06-01T16:23:49.270Z,4.12
2019-06-01T16:26:15.830Z,7.33
2019-06-01T16:28:40.326Z,2.92
2019-06-01T16:31:10.497Z,2.15
2019-06-01T16:33:40.597Z,4.08
2019-06-01T16:36:10.770Z,2.35
2019-06-01T16:38:40.773Z,2.42
2019-06-01T16:41:10.996Z,2.10
2019-06-01T16:43:41.193Z,2.30
2019-06-01T16:46:11.205Z,2.77
2019-06-01T16:48:41.290Z,2.20
2019-06-01T16:51:11.462Z,2.30
2019-06-01T16:53:41.727Z,2.10
2019-06-01T16:56:11.910Z,2.20
2019-06-01T16:58:42.075Z,2.25
2019-06-01T17:01:12.186Z,4.45
2019-06-01T17:03:42.360Z,2.22
2019-06-01T17:06:12.526Z,2.85
2019-06-01T17:08:42.646Z,3.65
2019-06-01T17:11:12.748Z,2.85
2019-06-01T17:13:43.020Z,1.80
2019-06-01T17:16:13.152Z,2.30
2019-06-01T17:18:43.310Z,1.87
2019-06-01T17:21:13.434Z,2.17
2019-06-01T17:23:43.661Z,2.40
2019-06-01T17:26:13.822Z,3.83
2019-06-01T17:28:44.026Z,3.47
2019-06-01T17:31:14.041Z,2.35
2019-06-01T17:33:44.117Z,3.20
2019-06-01T17:36:14.313Z,2.00
2019-06-01T17:38:44.478Z,2.85
2019-06-01T17:41:14.697Z,3.05
2019-06-01T17:44:21.921Z,2.10
2019-06-01T17:46:53.873Z,1.82
2019-06-01T17:49:24.042Z,2.72
2019-06-01T17:51:54.240Z,3.47
2019-06-01T17:54:24.412Z,2.47
2019-06-01T17:56:54.851Z,1.90
2019-06-01T17:59:25.216Z,2.17
2019-06-01T18:01:55.301Z,2.10
2019-06-01T18:04:25.539Z,2.52
2019-06-01T18:06:55.736Z,2.17
2019-06-01T18:09:25.854Z,2.33
2019-06-01T18:11:56.184Z,2.33
2019-06-01T18:14:26.408Z,1.80
2019-06-01T18:16:56.666Z,1.85
2019-06-01T18:19:26.794Z,3.52
2019-06-01T18:21:56.988Z,2.12
2019-06-01T18:24:27.206Z,2.52
2019-06-01T18:26:57.308Z,2.02
2019-06-01T18:29:27.452Z,1.90
2019-06-01T18:31:57.711Z,20.37
2019-06-01T18:34:27.880Z,4.20
2019-06-01T18:36:58.041Z,2.58
2019-06-01T18:39:28.189Z,1.72
2019-06-01T18:41:58.370Z,2.75
2019-06-01T18:44:28.444Z,2.55
2019-06-01T18:46:58.493Z,1.95
2019-06-01T18:49:28.662Z,2.50
2019-06-01T18:51:58.810Z,3.80
2019-06-01T18:54:28.869Z,1.70
2019-06-01T18:57:09.647Z,2.58
2019-06-01T18:59:30.675Z,3.37
2019-06-01T19:02:00.760Z,2.60
2019-06-01T19:04:30.704Z,3.33
2019-06-01T19:07:00.731Z,2.47
2019-06-01T19:09:30.726Z,2.00
2019-06-01T19:12:00.827Z,2.12
2019-06-01T19:14:30.842Z,2.00
2019-06-01T19:17:00.882Z,1.87
2019-06-01T19:19:30.866Z,1.90
2019-06-01T19:22:01.036Z,2.20
2019-06-01T19:24:31.225Z,1.85
2019-06-01T19:27:01.277Z,2.98
2019-06-01T19:29:31.267Z,2.27
2019-06-01T19:32:01.676Z,2.40
2019-06-01T19:34:31.832Z,2.85
2019-06-01T19:37:04.721Z,2.30
2019-06-01T19:39:35.079Z,5.72
2019-06-01T19:42:05.151Z,2.37
2019-06-01T19:44:36.762Z,3.22
2019-06-01T19:47:07.753Z,2.17
2019-06-01T19:49:37.834Z,2.52
2019-06-01T19:52:08.577Z,3.27
2019-06-01T19:54:38.682Z,3.52
2019-06-01T19:57:09.711Z,2.30
2019-06-01T19:59:39.902Z,2.67
2019-06-01T20:02:27.289Z,2.22
2019-06-01T20:04:41.865Z,2.58
2019-06-01T20:07:13.047Z,3.47
2019-06-01T20:09:43.236Z,7.10
2019-06-01T20:12:16.329Z,2.45
2019-06-01T20:14:44.984Z,4.12
2019-06-01T20:17:15.658Z,4.15
2019-06-01T20:19:45.760Z,2.50
2019-06-01T20:22:16.948Z,21.93
2019-06-01T20:24:47.221Z,6.35
2019-06-01T20:27:17.598Z,3.25
2019-06-01T20:29:47.995Z,4.30
2019-06-01T20:32:18.183Z,3.62
2019-06-01T20:34:48.361Z,3.77
2019-06-01T20:37:18.445Z,2.87
2019-06-01T20:39:48.538Z,3.15
2019-06-01T20:42:27.839Z,3.42
2019-06-01T20:44:50.505Z,3.20
2019-06-01T20:47:20.991Z,2.72
2019-06-01T20:49:51.105Z,3.75
2019-06-01T20:52:21.206Z,2.83
2019-06-01T20:54:51.182Z,3.30
2019-06-01T20:57:21.522Z,2.77
2019-06-01T20:59:51.683Z,2.72
2019-06-01T21:02:21.904Z,3.12
2019-06-01T21:04:51.873Z,6.15
2019-06-01T21:07:22.020Z,3.12
2019-06-01T21:09:52.078Z,3.75
2019-06-01T21:12:42.676Z,2.95
2019-06-01T21:14:54.198Z,3.15
2019-06-01T21:17:24.496Z,3.75
2019-06-01T21:19:54.677Z,3.40
2019-06-01T21:22:24.966Z,4.25
2019-06-01T21:24:55.393Z,3.67
2019-06-01T21:27:25.578Z,3.90
2019-06-01T21:29:55.668Z,4.75
2019-06-01T21:32:25.724Z,2.65
2019-06-01T21:34:55.737Z,2.67
2019-06-01T21:37:26.518Z,3.95
2019-06-01T21:39:56.599Z,4.42
2019-06-01T21:42:26.768Z,4.85
2019-06-01T21:44:56.878Z,4.55
2019-06-01T21:47:26.885Z,3.12
2019-06-01T21:49:57.137Z,5.17
2019-06-01T21:52:27.287Z,4.00
2019-06-01T21:54:57.407Z,3.37
2019-06-01T21:57:27.423Z,3.33
2019-06-01T21:59:57.530Z,3.05
2019-06-01T22:02:27.736Z,4.25
2019-06-01T22:04:57.904Z,4.00
2019-06-01T22:07:27.935Z,4.15
2019-06-01T22:09:58.008Z,3.80
2019-06-01T22:12:28.160Z,4.22
2019-06-01T22:14:58.179Z,3.90
2019-06-01T22:17:28.313Z,4.60
2019-06-01T22:19:58.479Z,4.35
2019-06-01T22:22:28.481Z,5.55
2019-06-01T22:24:58.508Z,3.22
2019-06-01T22:27:28.629Z,5.50
2019-06-01T22:29:58.678Z,4.62
2019-06-01T22:32:31.493Z,4.47
2019-06-01T22:35:00.659Z,4.78
2019-06-01T22:37:30.788Z,5.70
2019-06-01T22:40:00.891Z,5.25
2019-06-01T22:42:30.913Z,5.60
2019-06-01T22:45:01.123Z,4.72
2019-06-01T22:47:31.300Z,4.67
2019-06-01T22:50:01.398Z,5.30
2019-06-01T22:52:31.466Z,5.05
2019-06-01T22:55:01.656Z,4.83
2019-06-01T22:57:32.674Z,4.85
2019-06-01T23:00:02.839Z,4.45
2019-06-01T23:02:32.929Z,4.28
2019-06-01T23:05:03.034Z,5.22
2019-06-01T23:07:33.198Z,6.05
2019-06-01T23:10:03.402Z,4.40
2019-06-01T23:12:33.811Z,4.83
2019-06-01T23:15:04.097Z,5.12
2019-06-01T23:17:34.202Z,5.42
2019-06-01T23:20:05.158Z,5.95
2019-06-01T23:22:35.355Z,4.80
2019-06-01T23:25:05.949Z,6.30
2019-06-01T23:27:36.082Z,5.78
2019-06-01T23:30:07.044Z,5.33
2019-06-01T23:32:37.134Z,5.17
2019-06-01T23:35:07.744Z,5.56
2019-06-01T23:37:37.896Z,6.07
2019-06-01T23:40:08.085Z,5.33
2019-06-01T23:42:38.165Z,5.78
2019-06-01T23:45:08.564Z,5.72
2019-06-01T23:47:38.693Z,5.75
2019-06-01T23:50:09.047Z,6.80
2019-06-01T23:52:39.170Z,6.47
2019-06-01T23:55:09.437Z,4.90
2019-06-01T23:57:39.523Z,5.55
